Terminal Aerodrome Forecast
Issued by NWS

Home | Current Version | Previous Version | Text Only | Print | Product List | Glossary On
Versions: 1 2 3 4 5 6 7 8 9 10 11 12 13 14
000
FTUS42 KRAH 291120
TAFINT
TAF
KINT 291120Z 2912/3012 05003KT P6SM VCSH BKN080 OVC110
      TEMPO 2912/2914 5SM -SHRA BR BKN025
     FM291400 03007KT 3SM -SHRA BR BKN015 OVC050
     FM291800 02007KT 6SM -SHRA BR BKN025 OVC080
     FM300200 01006KT 5SM BR VCSH BKN008 OVC025=

USA.gov is the U.S. government's official web portal to all federal, state and local government web resources and services.